VMMC/MFM METAR and TAF weather

Enter ICAO airport designator
Station Type Date Time Source
VMMC METAR 2018/12/12 12:30 UTC NOAA

VMMC 121230Z 35019KT 9999 FEW045 13/09 Q1025 NOSIG


Station Type Date Time Source
VMMC Decoded METAR 2018/12/12 12:30 UTC NOAA

Taipa, Macau (VMMC) 22-10N 113-34E
Dec 12, 2018 - 07:30 AM EST / 2018.12.12 1230 UTC
Wind: from the N (350 degrees) at 22 MPH (19 KT):0
Visibility: greater than 7 mile(s):0
Sky conditions: mostly clear
Temperature: 55 F (13 C)
Dew Point: 48 F (9 C)
Relative Humidity: 76%
Pressure (altimeter): 30.27 in. Hg (1025 hPa)
ob: VMMC 121230Z 35019KT 9999 FEW045 13/09 Q1025 NOSIG
cycle: 12

Station Type Date Time Source
VMMC TAF 2018/12/12 12:21 UTC NOAA

TAF VMMC 121100Z 1212/1318 36018KT 9999 FEW025


Example: see airport list